Time;durP1;ratioP1;P1;durP2;ratioP2;P2;SDS_P1;SDS_P2;PMS_P1;PMS_P2;Temp;Humidity;BMP_temperature;BMP_pressure;BME280_temperature;BME280_humidity;BME280_pressure;Samples;Min_cycle;Max_cycle;Signal;HPM_P1;HPM_P2
2023/10/18 00:01:05;;;;;;;0.00;0.00;;;10.90;60.30;;;;;;5012086;28;20553;-30
2023/10/18 00:03:33;;;;;;;0.00;0.00;;;10.90;60.30;;;;;;5031557;28;20222;-30
2023/10/18 00:06:16;;;;;;;0.00;0.00;;;10.90;60.30;;;;;;5022621;28;20197;-30
2023/10/18 00:08:47;;;;;;;0.00;0.00;;;10.90;60.30;;;;;;5026570;28;20197;-30
2023/10/18 00:11:18;;;;;;;0.00;0.00;;;10.90;60.30;;;;;;5008596;28;20212;-30
2023/10/18 00:13:50;;;;;;;0.00;0.00;;;10.80;60.30;;;;;;5013054;28;20753;-30
2023/10/18 00:16:17;;;;;;;0.00;0.00;;;10.80;60.30;;;;;;5007913;28;20449;-31
2023/10/18 00:18:47;;;;;;;0.00;0.00;;;10.80;60.30;;;;;;5021185;28;20217;-31
2023/10/18 00:21:14;;;;;;;0.00;0.00;;;10.80;60.40;;;;;;5017254;28;20198;-30
2023/10/18 00:23:48;;;;;;;0.00;0.00;;;10.80;60.40;;;;;;5011159;28;20225;-31
2023/10/18 00:26:15;;;;;;;0.00;0.00;;;10.80;60.40;;;;;;5025804;28;20229;-30
2023/10/18 00:28:45;;;;;;;0.00;0.00;;;10.80;60.40;;;;;;5011872;28;20276;-30
2023/10/18 00:31:21;;;;;;;0.00;0.00;;;10.70;60.30;;;;;;5016424;28;20201;-30
2023/10/18 00:33:48;;;;;;;0.00;0.00;;;10.70;60.40;;;;;;5011683;28;20221;-30
2023/10/18 00:36:18;;;;;;;0.00;0.00;;;10.70;60.30;;;;;;5015265;28;20563;-30
2023/10/18 00:38:46;;;;;;;0.00;0.00;;;10.70;60.30;;;;;;5020556;28;20677;-31
2023/10/18 00:41:21;;;;;;;0.00;0.00;;;10.70;60.40;;;;;;5007501;28;20193;-31
2023/10/18 00:43:52;;;;;;;0.00;0.00;;;10.70;60.40;;;;;;5006888;28;20236;-30
2023/10/18 00:46:21;;;;;;;0.00;0.00;;;10.70;60.50;;;;;;5008371;28;20541;-31
2023/10/18 00:48:48;;;;;;;0.00;0.00;;;10.70;60.50;;;;;;5008846;28;20213;-30
2023/10/18 00:51:17;;;;;;;0.00;0.00;;;10.70;60.50;;;;;;5025266;28;20197;-30
2023/10/18 00:53:51;;;;;;;0.00;0.00;;;10.70;60.50;;;;;;5021157;28;20217;-30
2023/10/18 00:56:21;;;;;;;0.00;0.00;;;10.70;60.50;;;;;;5021658;28;20201;-30
2023/10/18 00:58:52;;;;;;;0.00;0.00;;;10.60;60.50;;;;;;5008788;28;20205;-31
2023/10/18 01:01:20;;;;;;;0.00;0.00;;;10.60;60.50;;;;;;5017924;28;20741;-31
2023/10/18 01:03:49;;;;;;;0.00;0.00;;;10.60;60.50;;;;;;5022713;28;20218;-30
2023/10/18 01:06:26;;;;;;;0.00;0.00;;;10.60;60.50;;;;;;5022721;28;20205;-31
2023/10/18 01:08:56;;;;;;;0.00;0.00;;;10.60;60.50;;;;;;5009564;28;20212;-30
2023/10/18 01:11:28;;;;;;;0.00;0.00;;;10.50;60.50;;;;;;5021127;28;20197;-30
2023/10/18 01:14:00;;;;;;;0.00;0.00;;;10.50;60.50;;;;;;5012433;28;20221;-30
2023/10/18 01:16:31;;;;;;;0.00;0.00;;;10.50;60.60;;;;;;5011218;28;20225;-30
2023/10/18 01:19:04;;;;;;;0.00;0.00;;;10.50;60.60;;;;;;5017574;28;20854;-30
2023/10/18 01:21:34;;;;;;;0.00;0.00;;;10.50;60.60;;;;;;5026316;28;20211;-30
2023/10/18 01:24:01;;;;;;;0.00;0.00;;;10.50;60.60;;;;;;5014719;28;20237;-30
2023/10/18 01:26:37;;;;;;;0.00;0.00;;;10.50;60.60;;;;;;5014465;28;20208;-30
2023/10/18 01:29:08;;;;;;;0.00;0.00;;;10.50;60.60;;;;;;5012595;28;20248;-30
2023/10/18 01:31:45;;;;;;;0.00;0.00;;;10.50;60.80;;;;;;5020846;28;20203;-30
2023/10/18 01:34:15;;;;;;;0.00;0.00;;;10.40;60.60;;;;;;5005267;28;20692;-30
2023/10/18 01:36:46;;;;;;;0.00;0.00;;;10.40;60.70;;;;;;5006819;28;20214;-30
2023/10/18 01:39:18;;;;;;;0.00;0.00;;;10.40;60.70;;;;;;5019958;28;20205;-31
2023/10/18 01:41:50;;;;;;;0.00;0.00;;;10.40;60.70;;;;;;5008305;28;20222;-30
2023/10/18 01:44:33;;;;;;;0.00;0.00;;;10.40;60.70;;;;;;5007632;28;20225;-30
2023/10/18 01:47:09;;;;;;;0.00;0.00;;;10.40;60.80;;;;;;5014160;28;20733;-30
2023/10/18 01:49:41;;;;;;;0.00;0.00;;;10.40;60.70;;;;;;5010747;28;20288;-30
2023/10/18 01:52:08;;;;;;;0.00;0.00;;;10.30;60.80;;;;;;5008611;28;20659;-31
2023/10/18 01:54:38;;;;;;;0.00;0.00;;;10.30;60.70;;;;;;5007584;28;20213;-31
2023/10/18 01:57:11;;;;;;;0.00;0.00;;;10.30;60.80;;;;;;5025280;28;20702;-31
2023/10/18 01:59:39;;;;;;;0.00;0.00;;;10.30;60.80;;;;;;5018789;28;20209;-30
2023/10/18 02:02:10;;;;;;;0.00;0.00;;;10.30;60.80;;;;;;5015446;28;20698;-30
2023/10/18 02:04:41;;;;;;;0.00;0.00;;;10.30;60.90;;;;;;5018601;28;20279;-30
2023/10/18 02:07:22;;;;;;;0.00;0.00;;;10.30;60.90;;;;;;5013548;28;20208;-30
2023/10/18 02:09:57;;;;;;;0.00;0.00;;;10.30;60.90;;;;;;5012799;28;20321;-30
2023/10/18 02:12:27;;;;;;;0.00;0.00;;;10.30;61.00;;;;;;5012323;28;20205;-30
2023/10/18 02:14:57;;;;;;;0.00;0.00;;;10.30;61.00;;;;;;5019080;28;20233;-30
2023/10/18 02:17:24;;;;;;;0.00;0.00;;;10.30;61.00;;;;;;5004692;28;20284;-31
2023/10/18 02:19:52;;;;;;;0.00;0.00;;;10.30;61.10;;;;;;5017192;28;20313;-31
2023/10/18 02:22:24;;;;;;;0.00;0.00;;;10.30;61.00;;;;;;5018442;28;20235;-30
2023/10/18 02:24:53;;;;;;;0.00;0.00;;;10.30;61.10;;;;;;5009023;28;20709;-30
2023/10/18 02:27:24;;;;;;;0.00;0.00;;;10.30;61.10;;;;;;5005113;28;20628;-30
2023/10/18 02:29:52;;;;;;;0.00;0.00;;;10.20;61.00;;;;;;5008393;28;20760;-30
2023/10/18 02:32:39;;;;;;;0.00;0.00;;;10.20;61.00;;;;;;5024580;28;20248;-31
2023/10/18 02:35:09;;;;;;;0.00;0.00;;;10.20;61.00;;;;;;5016905;28;20201;-31
2023/10/18 02:37:36;;;;;;;0.00;0.00;;;10.20;61.00;;;;;;5007149;28;20194;-30
2023/10/18 02:40:07;;;;;;;0.00;0.00;;;10.20;61.00;;;;;;5011408;28;20216;-30
2023/10/18 02:42:35;;;;;;;0.00;0.00;;;10.20;61.10;;;;;;5006103;28;20209;-30
2023/10/18 02:45:12;;;;;;;0.00;0.00;;;10.20;61.10;;;;;;5004732;28;20643;-30
2023/10/18 02:47:40;;;;;;;0.00;0.00;;;10.20;61.10;;;;;;5012186;28;20270;-32
2023/10/18 02:50:14;;;;;;;0.00;0.00;;;10.20;61.10;;;;;;5004815;28;20228;-32
2023/10/18 02:52:42;;;;;;;0.00;0.00;;;10.20;61.20;;;;;;5005077;28;20264;-32
2023/10/18 02:55:12;;;;;;;0.00;0.00;;;10.20;61.10;;;;;;5005695;28;20680;-32
2023/10/18 02:57:46;;;;;;;0.00;0.00;;;10.20;61.10;;;;;;5007167;28;20224;-32
2023/10/18 03:00:17;;;;;;;0.00;0.00;;;10.10;61.20;;;;;;5013992;28;20202;-32
2023/10/18 03:02:48;;;;;;;0.00;0.00;;;10.10;61.10;;;;;;5022270;28;20233;-32
2023/10/18 03:05:19;;;;;;;0.00;0.00;;;10.10;61.20;;;;;;5021249;28;20228;-32
2023/10/18 03:07:49;;;;;;;0.00;0.00;;;10.10;61.20;;;;;;5009560;28;20304;-32
2023/10/18 03:10:27;;;;;;;0.00;0.00;;;10.10;61.30;;;;;;5014791;28;20335;-32
2023/10/18 03:12:58;;;;;;;0.00;0.00;;;10.20;61.30;;;;;;5022566;28;20303;-32
2023/10/18 03:15:26;;;;;;;0.00;0.00;;;10.20;61.30;;;;;;5019017;28;20225;-32
2023/10/18 03:18:00;;;;;;;0.00;0.00;;;10.20;61.40;;;;;;5014051;28;20205;-32
2023/10/18 03:20:29;;;;;;;0.00;0.00;;;10.20;62.20;;;;;;5023640;28;20200;-32
2023/10/18 03:23:02;;;;;;;0.00;0.00;;;10.20;61.40;;;;;;5013902;28;20312;-32
2023/10/18 03:25:31;;;;;;;0.00;0.00;;;10.20;61.40;;;;;;5018739;28;20227;-32
2023/10/18 03:28:04;;;;;;;0.00;0.00;;;10.20;61.40;;;;;;5018846;28;20721;-32
2023/10/18 03:31:20;;;;;;;0.00;0.00;;;10.20;61.40;;;;;;5005188;28;20739;-32
2023/10/18 03:33:28;;;;;;;0.00;0.00;;;10.20;61.50;;;;;;5024181;28;20695;-32
2023/10/18 03:36:06;;;;;;;0.00;0.00;;;10.20;61.50;;;;;;5018329;28;20292;-32
2023/10/18 03:39:00;;;;;;;0.00;0.00;;;10.20;61.50;;;;;;5008699;28;20296;-32
2023/10/18 03:41:34;;;;;;;0.00;0.00;;;10.20;61.50;;;;;;5004869;28;20196;-32
2023/10/18 03:44:06;;;;;;;0.00;0.00;;;10.20;61.60;;;;;;5018118;28;20279;-31
2023/10/18 03:46:46;;;;;;;0.00;0.00;;;10.20;61.60;;;;;;5019996;28;20706;-32
2023/10/18 03:49:39;;;;;;;0.00;0.00;;;10.30;61.60;;;;;;5019797;28;20209;-32
2023/10/18 03:57:38;;;;;;;0.00;0.00;;;10.30;61.70;;;;;;5019227;28;20243;-32
2023/10/18 04:00:28;;;;;;;0.00;0.00;;;10.30;61.60;;;;;;5018869;28;20209;-32
2023/10/18 04:02:56;;;;;;;0.00;0.00;;;10.30;61.60;;;;;;5005314;28;20766;-32
2023/10/18 04:05:35;;;;;;;0.00;0.00;;;10.30;61.60;;;;;;5005797;28;20225;-32
2023/10/18 04:08:06;;;;;;;0.00;0.00;;;10.30;61.60;;;;;;5011571;28;20232;-32
2023/10/18 04:10:37;;;;;;;0.00;0.00;;;10.30;61.60;;;;;;5015556;28;20243;-31
2023/10/18 04:13:13;;;;;;;0.00;0.00;;;10.30;61.60;;;;;;5007508;28;20288;-32
2023/10/18 04:16:30;;;;;;;0.00;0.00;;;10.30;61.60;;;;;;5011796;28;20201;-32
2023/10/18 04:18:34;;;;;;;0.00;0.00;;;10.30;61.60;;;;;;5031526;28;20259;-32
2023/10/18 04:21:14;;;;;;;0.00;0.00;;;10.30;61.60;;;;;;5005165;28;20613;-32
2023/10/18 04:23:46;;;;;;;0.00;0.00;;;10.30;61.70;;;;;;5007564;28;20659;-32
2023/10/18 04:26:21;;;;;;;0.00;0.00;;;10.30;61.70;;;;;;5021009;28;20219;-32
2023/10/18 04:28:54;;;;;;;0.00;0.00;;;10.30;61.60;;;;;;5006459;28;20281;-31
2023/10/18 04:31:26;;;;;;;0.00;0.00;;;10.30;61.60;;;;;;5014693;28;20260;-30
2023/10/18 04:33:57;;;;;;;0.00;0.00;;;10.30;61.70;;;;;;5016312;28;20749;-30
2023/10/18 04:36:27;;;;;;;0.00;0.00;;;10.30;62.00;;;;;;5018614;28;20540;-30
2023/10/18 04:38:59;;;;;;;0.00;0.00;;;10.30;61.70;;;;;;5009495;28;20263;-30
2023/10/18 04:41:31;;;;;;;0.00;0.00;;;10.30;61.70;;;;;;5045329;28;20201;-30
2023/10/18 04:44:11;;;;;;;0.00;0.00;;;10.30;61.70;;;;;;5025719;28;20768;-30
2023/10/18 04:46:47;;;;;;;0.00;0.00;;;10.30;61.70;;;;;;5016512;28;20208;-31
2023/10/18 04:51:48;;;;;;;0.00;0.00;;;10.30;61.70;;;;;;5024699;28;20627;-30
2023/10/18 04:54:16;;;;;;;0.00;0.00;;;10.30;61.80;;;;;;5014785;28;20212;-30
2023/10/18 04:56:53;;;;;;;0.00;0.00;;;10.30;61.80;;;;;;5022588;28;20220;-30
2023/10/18 05:04:20;;;;;;;0.00;0.00;;;10.20;61.80;;;;;;5012015;28;20228;-30
2023/10/18 05:09:34;;;;;;;0.00;0.00;;;10.20;61.80;;;;;;5006756;28;20213;-31
2023/10/18 05:12:07;;;;;;;0.00;0.00;;;10.20;61.80;;;;;;5016433;28;20473;-32
2023/10/18 05:14:42;;;;;;;0.00;0.00;;;10.20;61.70;;;;;;5023966;28;20229;-31
2023/10/18 05:17:22;;;;;;;0.00;0.00;;;10.20;61.80;;;;;;5018805;28;20328;-30
2023/10/18 05:19:51;;;;;;;0.00;0.00;;;10.20;61.80;;;;;;5021923;28;20570;-30
2023/10/18 05:22:23;;;;;;;0.00;0.00;;;10.20;61.80;;;;;;5013144;28;20206;-30
2023/10/18 05:25:15;;;;;;;0.03;0.00;;;10.20;61.80;;;;;;5005000;28;20225;-30
2023/10/18 05:38:53;;;;;;;0.00;0.00;;;10.20;61.90;;;;;;5009182;28;20233;-30
2023/10/18 05:44:00;;;;;;;0.00;0.00;;;10.20;61.90;;;;;;5010610;28;20232;-30
2023/10/18 05:46:34;;;;;;;0.00;0.00;;;10.20;61.90;;;;;;5024875;28;20680;-30
2023/10/18 05:49:03;;;;;;;0.00;0.00;;;10.20;61.90;;;;;;5014305;28;20204;-30
2023/10/18 05:51:37;;;;;;;0.00;0.00;;;10.20;61.90;;;;;;5013593;28;20209;-30
2023/10/18 05:54:06;;;;;;;0.00;0.00;;;10.20;61.90;;;;;;5018928;28;20689;-30
2023/10/18 05:56:34;;;;;;;0.00;0.00;;;10.10;61.90;;;;;;5020445;28;20198;-30
2023/10/18 06:01:51;;;;;;;0.00;0.00;;;10.10;61.90;;;;;;5011666;28;20237;-30
2023/10/18 06:04:24;;;;;;;0.00;0.00;;;10.10;61.90;;;;;;5017860;28;20751;-30
2023/10/18 06:06:55;;;;;;;0.00;0.00;;;10.10;61.90;;;;;;5015931;28;20756;-31
2023/10/18 06:09:33;;;;;;;0.00;0.00;;;10.10;61.90;;;;;;5019387;28;20668;-31
2023/10/18 06:12:00;;;;;;;0.00;0.00;;;10.10;61.90;;;;;;5021964;28;20193;-30
2023/10/18 06:14:40;;;;;;;0.00;0.00;;;10.10;62.00;;;;;;5021444;28;20205;-30
2023/10/18 06:17:19;;;;;;;0.10;0.00;;;10.10;62.00;;;;;;5011558;28;20214;-31
2023/10/18 06:19:50;;;;;;;0.00;0.00;;;10.10;62.10;;;;;;5023073;28;20209;-30
2023/10/18 06:22:38;;;;;;;0.00;0.00;;;10.10;62.10;;;;;;5011971;28;20809;-30
2023/10/18 06:25:09;;;;;;;0.00;0.00;;;10.10;62.20;;;;;;5026109;28;20239;-31
2023/10/18 06:27:40;;;;;;;0.00;0.00;;;10.10;62.20;;;;;;5012341;28;20209;-30
2023/10/18 06:30:17;;;;;;;0.00;0.00;;;10.10;62.20;;;;;;5020672;28;20201;-33
2023/10/18 06:32:45;;;;;;;0.00;0.00;;;10.10;62.20;;;;;;5006414;28;20225;-29
2023/10/18 06:35:18;;;;;;;0.00;0.00;;;10.10;62.20;;;;;;5015366;28;20213;-31
2023/10/18 06:37:45;;;;;;;0.00;0.00;;;10.10;62.30;;;;;;5005633;28;20201;-30
2023/10/18 06:43:00;;;;;;;0.00;0.00;;;10.20;62.40;;;;;;5010578;28;20196;-30
2023/10/18 06:45:33;;;;;;;0.00;0.00;;;10.20;62.40;;;;;;5012689;28;20588;-30
2023/10/18 06:48:03;;;;;;;0.00;0.00;;;10.20;62.40;;;;;;5015235;28;20656;-30
2023/10/18 06:50:33;;;;;;;0.00;0.00;;;10.20;62.40;;;;;;5007542;28;20206;-30
2023/10/18 06:53:06;;;;;;;0.00;0.00;;;10.20;63.20;;;;;;5014431;28;20213;-29
2023/10/18 06:55:43;;;;;;;0.00;0.00;;;10.20;62.40;;;;;;5010985;28;20209;-30
2023/10/18 06:58:13;;;;;;;0.00;0.00;;;10.30;62.40;;;;;;5014572;28;20299;-30
2023/10/18 07:00:46;;;;;;;0.00;0.00;;;10.30;62.40;;;;;;5018682;28;20209;-30
2023/10/18 07:03:25;;;;;;;0.00;0.00;;;10.30;62.50;;;;;;5008106;28;20307;-30
2023/10/18 07:06:04;;;;;;;0.00;0.00;;;10.30;62.40;;;;;;5024352;28;20221;-30
2023/10/18 07:08:40;;;;;;;0.00;0.00;;;10.40;62.50;;;;;;5015987;28;20255;-30
2023/10/18 07:11:16;;;;;;;0.00;0.00;;;10.40;62.50;;;;;;5007689;28;20675;-30
2023/10/18 07:13:54;;;;;;;0.00;0.00;;;10.40;62.50;;;;;;5004062;28;20622;-30
2023/10/18 07:19:21;;;;;;;0.00;0.00;;;10.40;62.50;;;;;;5007117;28;20640;-30
2023/10/18 07:21:48;;;;;;;0.00;0.00;;;10.40;62.50;;;;;;5007757;28;20206;-30
2023/10/18 07:24:21;;;;;;;0.00;0.00;;;10.40;62.60;;;;;;5018589;28;20205;-29
2023/10/18 07:26:48;;;;;;;0.00;0.00;;;10.40;62.60;;;;;;5018265;28;20279;-30
2023/10/18 07:29:20;;;;;;;0.00;0.00;;;10.50;62.60;;;;;;5007588;28;20206;-30
2023/10/18 07:31:48;;;;;;;0.00;0.00;;;10.40;62.50;;;;;;5004841;28;20212;-30
2023/10/18 07:34:18;;;;;;;0.00;0.00;;;10.50;62.60;;;;;;5011595;28;20551;-30
2023/10/18 07:36:46;;;;;;;0.00;0.00;;;10.50;62.70;;;;;;5021448;28;20220;-30
2023/10/18 07:39:16;;;;;;;0.00;0.00;;;10.50;62.70;;;;;;5006499;28;20275;-30
2023/10/18 07:41:46;;;;;;;0.00;0.00;;;10.50;62.70;;;;;;5013702;28;20301;-30
2023/10/18 07:44:13;;;;;;;0.00;0.00;;;10.50;62.70;;;;;;5009281;28;20302;-30
2023/10/18 07:46:43;;;;;;;0.10;0.00;;;10.60;62.70;;;;;;5023641;28;20217;-30
2023/10/18 07:49:14;;;;;;;0.00;0.00;;;10.60;62.70;;;;;;5021475;28;20306;-29
2023/10/18 07:51:43;;;;;;;0.00;0.00;;;10.60;62.70;;;;;;5015956;28;20660;-29
2023/10/18 07:54:15;;;;;;;0.00;0.00;;;10.70;62.90;;;;;;5002995;28;20291;-30
2023/10/18 07:56:50;;;;;;;0.00;0.00;;;10.70;62.90;;;;;;5012338;28;20206;-29
2023/10/18 07:59:29;;;;;;;0.00;0.00;;;10.70;62.80;;;;;;5014550;28;20204;-29
2023/10/18 08:04:36;;;;;;;0.00;0.00;;;10.80;63.00;;;;;;5015047;28;20296;-30
2023/10/18 08:07:10;;;;;;;0.00;0.00;;;10.80;63.00;;;;;;5009559;28;20256;-30
2023/10/18 08:09:48;;;;;;;0.00;0.00;;;10.80;63.00;;;;;;5011176;28;20201;-30
2023/10/18 08:14:48;;;;;;;0.00;0.00;;;10.90;63.10;;;;;;5010726;28;20197;-29
2023/10/18 08:17:33;;;;;;;0.00;0.00;;;11.00;63.10;;;;;;5020101;28;20625;-30
2023/10/18 08:20:29;;;;;;;0.00;0.00;;;11.00;63.10;;;;;;5010111;28;20312;-30
2023/10/18 08:23:14;;;;;;;0.00;0.00;;;11.10;63.20;;;;;;5010605;28;20212;-30
2023/10/18 08:25:47;;;;;;;0.00;0.00;;;11.10;63.30;;;;;;5015418;28;20217;-30
2023/10/18 08:28:15;;;;;;;0.00;0.00;;;11.20;63.30;;;;;;5019291;28;20738;-30
2023/10/18 08:33:11;;;;;;;0.00;0.00;;;11.30;63.40;;;;;;5009935;28;20214;-29
2023/10/18 08:35:41;;;;;;;0.00;0.00;;;11.40;63.40;;;;;;5019065;28;20205;-30
2023/10/18 08:38:08;;;;;;;0.00;0.00;;;11.40;63.30;;;;;;5018870;28;20228;-30
2023/10/18 08:40:37;;;;;;;0.00;0.00;;;11.50;64.10;;;;;;5026632;28;20237;-30
2023/10/18 08:43:32;;;;;;;0.00;0.00;;;11.60;63.40;;;;;;5019329;28;20756;-30
2023/10/18 08:46:08;;;;;;;0.00;0.00;;;11.60;63.40;;;;;;5013465;28;20322;-30
2023/10/18 08:48:40;;;;;;;0.00;0.00;;;11.70;63.50;;;;;;5016112;28;20251;-30
2023/10/18 08:51:12;;;;;;;0.00;0.00;;;11.70;63.40;;;;;;5014303;28;20197;-30
2023/10/18 08:53:41;;;;;;;0.00;0.00;;;11.80;63.50;;;;;;5022382;28;20224;-30
2023/10/18 08:56:09;;;;;;;0.00;0.00;;;11.80;63.40;;;;;;5023971;28;20687;-30
2023/10/18 08:58:37;;;;;;;0.00;0.00;;;11.90;63.50;;;;;;5008658;28;20296;-30
2023/10/18 09:01:05;;;;;;;0.00;0.00;;;11.90;63.50;;;;;;5024043;28;20279;-29
2023/10/18 09:03:35;;;;;;;0.00;0.00;;;12.00;63.50;;;;;;5025359;28;20217;-30
2023/10/18 09:06:22;;;;;;;0.00;0.00;;;12.00;63.50;;;;;;5029646;28;20221;-30
2023/10/18 09:09:07;;;;;;;0.00;0.00;;;12.10;63.60;;;;;;5018280;28;20208;-30
2023/10/18 09:11:37;;;;;;;0.00;0.00;;;12.20;63.60;;;;;;5020381;28;20236;-29
2023/10/18 09:14:15;;;;;;;0.00;0.00;;;12.20;64.40;;;;;;5008819;28;20747;-30
2023/10/18 09:16:47;;;;;;;0.00;0.00;;;12.30;63.70;;;;;;5026864;28;20706;-30
2023/10/18 09:19:15;;;;;;;0.00;0.00;;;12.40;64.50;;;;;;5016311;28;20193;-29
2023/10/18 09:21:44;;;;;;;0.00;0.00;;;12.40;63.60;;;;;;5008744;28;20229;-30
2023/10/18 09:24:14;;;;;;;0.00;0.00;;;12.50;63.70;;;;;;5008317;28;20300;-30
2023/10/18 09:26:46;;;;;;;0.00;0.00;;;12.60;63.70;;;;;;5008415;28;20218;-30
2023/10/18 09:29:16;;;;;;;0.00;0.00;;;12.60;64.40;;;;;;5011574;28;20641;-29
2023/10/18 09:32:02;;;;;;;0.00;0.00;;;12.70;63.70;;;;;;5028220;28;20217;-30
2023/10/18 09:34:38;;;;;;;0.00;0.00;;;12.70;63.80;;;;;;5020865;28;20578;-30
2023/10/18 09:37:15;;;;;;;0.00;0.00;;;12.80;63.80;;;;;;5015565;28;20205;-30
2023/10/18 09:39:55;;;;;;;0.00;0.00;;;12.90;63.90;;;;;;5016922;28;20781;-30
2023/10/18 09:42:25;;;;;;;0.00;0.00;;;13.00;64.00;;;;;;5008352;28;20304;-30
2023/10/18 09:44:55;;;;;;;0.00;0.00;;;13.10;64.00;;;;;;5013299;28;20300;-30
2023/10/18 09:47:24;;;;;;;0.00;0.00;;;13.10;64.00;;;;;;5026149;28;20329;-30
2023/10/18 09:49:57;;;;;;;0.00;0.00;;;13.20;64.10;;;;;;5020807;28;20217;-30
2023/10/18 09:52:30;;;;;;;0.00;0.00;;;13.30;64.00;;;;;;5028707;28;20197;-30
2023/10/18 09:55:03;;;;;;;0.00;0.00;;;13.40;64.00;;;;;;5018268;28;20573;-30
2023/10/18 09:57:35;;;;;;;0.00;0.00;;;13.50;64.00;;;;;;5025962;28;20240;-30
2023/10/18 10:00:11;;;;;;;0.00;0.00;;;13.50;64.00;;;;;;5020735;28;20225;-29
2023/10/18 10:02:43;;;;;;;0.00;0.00;;;13.60;64.10;;;;;;5027590;28;20801;-30
2023/10/18 10:05:24;;;;;;;0.00;0.00;;;13.70;64.00;;;;;;5022439;28;20709;-30
2023/10/18 10:07:56;;;;;;;0.00;0.00;;;13.80;64.10;;;;;;5024554;28;20942;-30
2023/10/18 10:10:43;;;;;;;0.00;0.00;;;13.80;64.00;;;;;;5019383;28;20205;-30
2023/10/18 10:13:18;;;;;;;0.00;0.00;;;13.90;64.00;;;;;;5024056;28;20312;-30
2023/10/18 10:16:03;;;;;;;0.00;0.00;;;14.00;64.10;;;;;;5015812;28;20212;-29
2023/10/18 10:18:36;;;;;;;0.00;0.00;;;14.00;64.10;;;;;;5020583;28;20201;-30
2023/10/18 10:21:06;;;;;;;0.00;0.00;;;14.10;64.40;;;;;;5015044;28;20323;-30
2023/10/18 10:23:38;;;;;;;0.00;0.00;;;14.20;64.20;;;;;;5008780;28;20289;-29
2023/10/18 10:26:11;;;;;;;0.00;0.00;;;14.30;64.30;;;;;;5025810;28;20240;-30
2023/10/18 10:32:05;;;;;;;0.00;0.00;;;14.40;64.20;;;;;;5012000;28;20197;-30
2023/10/18 10:34:36;;;;;;;0.00;0.00;;;14.50;64.20;;;;;;5010247;28;20296;-30
2023/10/18 10:37:18;;;;;;;0.00;0.00;;;14.60;64.30;;;;;;5014219;28;20604;-30
2023/10/18 10:40:18;;;;;;;0.00;0.00;;;14.70;64.40;;;;;;5029089;28;20597;-30
2023/10/18 10:42:46;;;;;;;0.00;0.00;;;14.70;64.30;;;;;;5007630;28;20225;-30
2023/10/18 10:53:48;;;;;;;0.00;0.00;;;15.00;64.30;;;;;;5010504;28;20236;-30
2023/10/18 10:56:27;;;;;;;0.00;0.00;;;15.10;64.40;;;;;;5017441;28;20565;-30
2023/10/18 10:59:21;;;;;;;0.00;0.00;;;15.20;64.40;;;;;;5004298;28;20217;-30
2023/10/18 11:04:46;;;;;;;0.00;0.00;;;15.40;64.50;;;;;;5010713;28;20291;-30
2023/10/18 11:07:23;;;;;;;0.00;0.00;;;15.50;64.50;;;;;;5019522;28;20224;-30
2023/10/18 11:10:04;;;;;;;0.00;0.00;;;15.60;64.60;;;;;;5019415;28;20217;-30
2023/10/18 11:12:33;;;;;;;0.00;0.00;;;15.60;64.50;;;;;;5018973;28;20292;-30
2023/10/18 11:15:01;;;;;;;0.00;0.00;;;15.70;64.50;;;;;;5013002;28;20672;-30
2023/10/18 11:17:34;;;;;;;0.00;0.00;;;15.80;64.50;;;;;;5024311;28;20311;-30
2023/10/18 11:20:17;;;;;;;0.00;0.00;;;15.90;64.60;;;;;;5009697;28;20210;-30
2023/10/18 11:22:50;;;;;;;0.00;0.00;;;16.00;64.60;;;;;;5008108;28;20217;-30
2023/10/18 11:25:30;;;;;;;0.00;0.00;;;16.10;64.70;;;;;;5019602;28;20312;-30
2023/10/18 11:28:18;;;;;;;0.00;0.00;;;16.20;64.70;;;;;;5005662;28;20229;-30
2023/10/18 11:30:50;;;;;;;0.00;0.00;;;16.30;64.70;;;;;;5023340;28;20201;-30
2023/10/18 11:33:36;;;;;;;0.00;0.00;;;16.40;64.70;;;;;;5020533;28;20201;-30
2023/10/18 11:36:08;;;;;;;0.00;0.00;;;16.50;64.80;;;;;;5016335;28;20239;-30
2023/10/18 11:38:35;;;;;;;0.00;0.00;;;16.50;64.60;;;;;;5011595;28;20209;-30
2023/10/18 11:41:09;;;;;;;0.00;0.00;;;16.60;64.60;;;;;;5008416;28;20204;-30
2023/10/18 11:43:44;;;;;;;0.00;0.00;;;16.70;64.60;;;;;;5005694;28;20303;-30
2023/10/18 11:46:14;;;;;;;0.00;0.00;;;16.80;64.60;;;;;;5017848;28;20225;-30
2023/10/18 11:48:43;;;;;;;0.00;0.00;;;16.80;64.50;;;;;;5018601;28;20203;-28
2023/10/18 11:51:13;;;;;;;0.00;0.00;;;16.90;64.60;;;;;;5024230;28;20267;-28
2023/10/18 11:53:40;;;;;;;0.00;0.00;;;17.00;64.40;;;;;;5021444;28;20224;-29
2023/10/18 11:56:11;;;;;;;0.00;0.00;;;17.00;64.40;;;;;;5008472;28;20307;-28
2023/10/18 11:58:57;;;;;;;0.00;0.00;;;17.10;64.40;;;;;;5014655;28;20697;-28
2023/10/18 12:01:33;;;;;;;0.00;0.00;;;17.20;64.50;;;;;;5018053;28;20241;-28
2023/10/18 12:04:01;;;;;;;0.00;0.00;;;17.20;64.30;;;;;;5007354;28;20220;-28
2023/10/18 12:06:28;;;;;;;0.00;0.00;;;17.30;64.30;;;;;;5029046;28;20213;-28
2023/10/18 12:09:25;;;;;;;0.00;0.00;;;17.30;64.20;;;;;;5012875;28;20283;-28
2023/10/18 12:11:55;;;;;;;0.00;0.00;;;17.40;64.20;;;;;;5029243;28;20243;-28
2023/10/18 12:14:25;;;;;;;0.00;0.00;;;17.40;64.30;;;;;;5018276;28;20636;-28
2023/10/18 12:16:54;;;;;;;0.00;0.00;;;17.50;64.40;;;;;;5006238;28;20388;-28
2023/10/18 12:19:22;;;;;;;0.00;0.00;;;17.50;64.30;;;;;;5006324;28;20206;-28
2023/10/18 12:21:49;;;;;;;0.00;0.00;;;17.60;64.40;;;;;;5035283;28;20197;-28
2023/10/18 12:24:20;;;;;;;0.00;0.00;;;17.70;64.40;;;;;;5002281;28;20762;-28
2023/10/18 12:26:53;;;;;;;0.00;0.00;;;17.70;64.30;;;;;;5005364;28;20218;-28
2023/10/18 12:29:28;;;;;;;0.00;0.00;;;17.80;64.20;;;;;;5005734;28;20293;-28
2023/10/18 12:32:07;;;;;;;0.00;0.00;;;17.80;64.20;;;;;;5003372;28;20205;-28
2023/10/18 12:34:43;;;;;;;0.00;0.00;;;17.90;64.10;;;;;;5004080;28;20205;-28
2023/10/18 12:37:13;;;;;;;0.00;0.00;;;17.90;64.10;;;;;;5015090;28;20304;-28
2023/10/18 12:39:46;;;;;;;0.00;0.00;;;18.00;64.00;;;;;;5021594;28;20343;-28
2023/10/18 12:42:19;;;;;;;0.00;0.00;;;18.00;64.00;;;;;;5021536;28;20216;-28
2023/10/18 12:44:48;;;;;;;0.00;0.00;;;18.00;63.90;;;;;;5022557;28;20375;-28
2023/10/18 12:47:21;;;;;;;0.00;0.00;;;18.10;64.00;;;;;;5015188;28;20323;-28
2023/10/18 12:49:52;;;;;;;0.00;0.00;;;18.10;64.00;;;;;;5014478;28;20679;-32
2023/10/18 12:57:53;;;;;;;0.00;0.00;;;18.30;64.10;;;;;;5017287;28;20217;-33
2023/10/18 13:00:25;;;;;;;0.00;0.00;;;18.30;64.20;;;;;;5019692;28;20204;-34
2023/10/18 13:05:40;;;;;;;0.00;0.00;;;18.40;64.10;;;;;;5028335;28;20220;-33
2023/10/18 13:08:23;;;;;;;0.00;0.00;;;18.50;64.10;;;;;;5008067;28;20236;-33
2023/10/18 13:13:40;;;;;;;0.00;0.00;;;18.60;64.10;;;;;;5015187;28;20652;-33
2023/10/18 13:16:13;;;;;;;0.00;0.00;;;18.60;64.00;;;;;;5010038;28;20312;-33
2023/10/18 13:18:42;;;;;;;0.00;0.00;;;18.70;64.00;;;;;;5007568;28;20205;-34
2023/10/18 13:21:12;;;;;;;0.00;0.00;;;18.70;63.90;;;;;;5017246;28;20295;-33
2023/10/18 13:23:46;;;;;;;0.00;0.00;;;18.70;63.90;;;;;;5017749;28;20227;-33
2023/10/18 13:26:18;;;;;;;0.00;0.00;;;18.80;63.90;;;;;;5028843;28;20204;-33
2023/10/18 13:28:59;;;;;;;0.00;0.00;;;18.80;63.80;;;;;;5014382;28;20336;-33
2023/10/18 13:31:34;;;;;;;0.00;0.00;;;18.90;63.70;;;;;;5018866;28;20563;-33
2023/10/18 13:34:06;;;;;;;0.00;0.00;;;18.90;63.70;;;;;;5010290;28;20739;-33
2023/10/18 13:36:36;;;;;;;0.00;0.00;;;18.90;63.70;;;;;;5024918;28;20232;-33
2023/10/18 13:39:11;;;;;;;0.00;0.00;;;19.00;63.60;;;;;;5022562;28;20790;-33
2023/10/18 13:41:46;;;;;;;0.00;0.00;;;19.00;63.80;;;;;;5016739;28;20597;-34
2023/10/18 13:44:19;;;;;;;0.00;0.00;;;19.10;63.70;;;;;;5019846;28;20638;-33
2023/10/18 13:46:50;;;;;;;0.00;0.00;;;19.10;63.60;;;;;;5013986;28;20299;-33
2023/10/18 13:49:39;;;;;;;0.00;0.00;;;19.10;63.50;;;;;;5024528;28;20586;-33
2023/10/18 13:52:07;;;;;;;0.00;0.00;;;19.10;63.50;;;;;;5015669;28;20198;-33
2023/10/18 13:54:34;;;;;;;0.00;0.00;;;19.10;63.50;;;;;;5011006;28;20208;-33
2023/10/18 13:57:02;;;;;;;0.00;0.00;;;19.20;63.60;;;;;;5021409;28;20202;-33
2023/10/18 13:59:34;;;;;;;0.00;0.00;;;19.20;63.40;;;;;;5006870;28;20247;-33
2023/10/18 14:02:01;;;;;;;0.00;0.00;;;19.20;63.30;;;;;;5013269;28;20593;-33
2023/10/18 14:04:32;;;;;;;0.00;0.00;;;19.30;63.40;;;;;;5014182;28;20309;-34
2023/10/18 14:07:05;;;;;;;0.00;0.00;;;19.30;63.30;;;;;;5018617;28;20612;-32
2023/10/18 14:09:35;;;;;;;0.00;0.00;;;19.30;63.30;;;;;;5007710;28;20206;-34
2023/10/18 14:12:03;;;;;;;0.00;0.00;;;19.30;63.20;;;;;;5012776;28;20202;-33
2023/10/18 14:14:32;;;;;;;0.00;0.00;;;19.30;63.20;;;;;;5012731;28;20221;-33
2023/10/18 14:17:03;;;;;;;0.00;0.00;;;19.40;63.10;;;;;;5019134;28;20292;-33
2023/10/18 14:19:33;;;;;;;0.00;0.00;;;19.40;63.10;;;;;;5013245;28;20537;-33
2023/10/18 14:22:00;;;;;;;0.00;0.00;;;19.40;63.00;;;;;;5016466;28;20287;-32
2023/10/18 14:24:28;;;;;;;0.00;0.00;;;19.40;63.00;;;;;;5017902;28;20204;-33
2023/10/18 14:27:03;;;;;;;0.00;0.00;;;19.40;62.90;;;;;;5013933;28;20767;-33
2023/10/18 14:29:36;;;;;;;0.00;0.00;;;19.40;62.80;;;;;;5020688;28;20205;-33